sensor_id;sensor_type;location;lat;lon;timestamp;P1;durP1;ratioP1;P2;durP2;ratioP2
2213;SDS011;1113;42.018;23.986;2024-01-30T00:00:10;12.48;;;7.20;;
2213;SDS011;1113;42.018;23.986;2024-01-30T00:02:38;9.43;;;6.03;;
2213;SDS011;1113;42.018;23.986;2024-01-30T00:05:07;8.77;;;5.38;;
2213;SDS011;1113;42.018;23.986;2024-01-30T00:07:34;7.45;;;4.97;;
2213;SDS011;1113;42.018;23.986;2024-01-30T00:10:01;8.15;;;4.65;;
2213;SDS011;1113;42.018;23.986;2024-01-30T00:12:28;8.85;;;6.60;;
2213;SDS011;1113;42.018;23.986;2024-01-30T00:14:55;12.65;;;7.00;;
2213;SDS011;1113;42.018;23.986;2024-01-30T00:17:22;11.98;;;7.20;;
2213;SDS011;1113;42.018;23.986;2024-01-30T00:19:50;10.02;;;7.00;;
2213;SDS011;1113;42.018;23.986;2024-01-30T00:22:19;7.35;;;5.05;;
2213;SDS011;1113;42.018;23.986;2024-01-30T00:24:46;12.13;;;5.80;;
2213;SDS011;1113;42.018;23.986;2024-01-30T00:27:12;11.63;;;6.90;;
2213;SDS011;1113;42.018;23.986;2024-01-30T00:29:39;11.30;;;6.20;;
2213;SDS011;1113;42.018;23.986;2024-01-30T00:32:06;10.07;;;5.15;;
2213;SDS011;1113;42.018;23.986;2024-01-30T00:34:33;10.45;;;6.35;;
2213;SDS011;1113;42.018;23.986;2024-01-30T00:37:00;11.43;;;6.15;;
2213;SDS011;1113;42.018;23.986;2024-01-30T00:39:29;7.40;;;5.40;;
2213;SDS011;1113;42.018;23.986;2024-01-30T00:41:56;8.20;;;4.70;;
2213;SDS011;1113;42.018;23.986;2024-01-30T00:44:23;8.60;;;5.53;;
2213;SDS011;1113;42.018;23.986;2024-01-30T00:46:50;8.20;;;5.68;;
2213;SDS011;1113;42.018;23.986;2024-01-30T00:49:17;10.68;;;6.18;;
2213;SDS011;1113;42.018;23.986;2024-01-30T00:51:45;10.48;;;5.47;;
2213;SDS011;1113;42.018;23.986;2024-01-30T00:54:13;7.90;;;5.72;;
2213;SDS011;1113;42.018;23.986;2024-01-30T00:56:41;8.45;;;5.20;;
2213;SDS011;1113;42.018;23.986;2024-01-30T00:59:08;9.40;;;5.93;;
2213;SDS011;1113;42.018;23.986;2024-01-30T01:01:35;11.65;;;5.25;;
2213;SDS011;1113;42.018;23.986;2024-01-30T01:04:02;8.15;;;5.70;;
2213;SDS011;1113;42.018;23.986;2024-01-30T01:06:30;8.45;;;5.03;;
2213;SDS011;1113;42.018;23.986;2024-01-30T01:08:57;9.00;;;5.25;;
2213;SDS011;1113;42.018;23.986;2024-01-30T01:11:24;6.95;;;4.40;;
2213;SDS011;1113;42.018;23.986;2024-01-30T01:13:52;8.48;;;4.45;;
2213;SDS011;1113;42.018;23.986;2024-01-30T01:16:19;7.60;;;4.80;;
2213;SDS011;1113;42.018;23.986;2024-01-30T01:18:46;8.52;;;5.47;;
2213;SDS011;1113;42.018;23.986;2024-01-30T01:21:13;8.80;;;4.50;;
2213;SDS011;1113;42.018;23.986;2024-01-30T01:23:40;13.30;;;6.82;;
2213;SDS011;1113;42.018;23.986;2024-01-30T01:26:07;18.05;;;12.13;;
2213;SDS011;1113;42.018;23.986;2024-01-30T01:28:35;19.33;;;11.63;;
2213;SDS011;1113;42.018;23.986;2024-01-30T01:31:03;23.15;;;14.30;;
2213;SDS011;1113;42.018;23.986;2024-01-30T01:33:31;22.17;;;14.00;;
2213;SDS011;1113;42.018;23.986;2024-01-30T01:35:58;16.90;;;9.60;;
2213;SDS011;1113;42.018;23.986;2024-01-30T01:38:27;15.70;;;10.00;;
2213;SDS011;1113;42.018;23.986;2024-01-30T01:40:54;11.98;;;7.72;;
2213;SDS011;1113;42.018;23.986;2024-01-30T01:43:21;17.67;;;11.45;;
2213;SDS011;1113;42.018;23.986;2024-01-30T01:45:48;11.52;;;8.48;;
2213;SDS011;1113;42.018;23.986;2024-01-30T01:48:17;19.10;;;13.07;;
2213;SDS011;1113;42.018;23.986;2024-01-30T01:50:44;24.42;;;16.40;;
2213;SDS011;1113;42.018;23.986;2024-01-30T01:53:11;18.02;;;11.27;;
2213;SDS011;1113;42.018;23.986;2024-01-30T01:55:39;14.45;;;9.80;;
2213;SDS011;1113;42.018;23.986;2024-01-30T01:58:06;14.70;;;10.02;;
2213;SDS011;1113;42.018;23.986;2024-01-30T02:00:35;14.85;;;9.25;;
2213;SDS011;1113;42.018;23.986;2024-01-30T02:03:05;18.60;;;12.60;;
2213;SDS011;1113;42.018;23.986;2024-01-30T02:05:34;14.15;;;9.38;;
2213;SDS011;1113;42.018;23.986;2024-01-30T02:08:02;14.30;;;9.15;;
2213;SDS011;1113;42.018;23.986;2024-01-30T02:10:30;17.42;;;11.10;;
2213;SDS011;1113;42.018;23.986;2024-01-30T02:13:14;14.57;;;10.38;;
2213;SDS011;1113;42.018;23.986;2024-01-30T02:15:41;11.93;;;10.07;;
2213;SDS011;1113;42.018;23.986;2024-01-30T02:18:08;13.18;;;11.15;;
2213;SDS011;1113;42.018;23.986;2024-01-30T02:20:37;13.68;;;9.88;;
2213;SDS011;1113;42.018;23.986;2024-01-30T02:23:06;11.93;;;8.45;;
2213;SDS011;1113;42.018;23.986;2024-01-30T02:25:38;12.68;;;7.07;;
2213;SDS011;1113;42.018;23.986;2024-01-30T02:28:09;8.68;;;6.10;;
2213;SDS011;1113;42.018;23.986;2024-01-30T02:30:37;14.63;;;8.02;;
2213;SDS011;1113;42.018;23.986;2024-01-30T02:33:04;11.95;;;6.05;;
2213;SDS011;1113;42.018;23.986;2024-01-30T02:35:31;10.80;;;6.70;;
2213;SDS011;1113;42.018;23.986;2024-01-30T02:37:59;9.60;;;6.88;;
2213;SDS011;1113;42.018;23.986;2024-01-30T02:40:27;9.07;;;5.47;;
2213;SDS011;1113;42.018;23.986;2024-01-30T02:42:56;16.05;;;8.55;;
2213;SDS011;1113;42.018;23.986;2024-01-30T02:45:24;15.82;;;10.27;;
2213;SDS011;1113;42.018;23.986;2024-01-30T02:47:51;16.40;;;9.98;;
2213;SDS011;1113;42.018;23.986;2024-01-30T02:50:18;14.38;;;10.70;;
2213;SDS011;1113;42.018;23.986;2024-01-30T02:52:45;20.17;;;14.02;;
2213;SDS011;1113;42.018;23.986;2024-01-30T02:55:12;17.65;;;12.77;;
2213;SDS011;1113;42.018;23.986;2024-01-30T02:57:44;17.77;;;10.70;;
2213;SDS011;1113;42.018;23.986;2024-01-30T03:00:11;14.40;;;9.43;;
2213;SDS011;1113;42.018;23.986;2024-01-30T03:02:39;18.17;;;10.93;;
2213;SDS011;1113;42.018;23.986;2024-01-30T03:05:06;12.70;;;8.20;;
2213;SDS011;1113;42.018;23.986;2024-01-30T03:07:34;9.90;;;6.07;;
2213;SDS011;1113;42.018;23.986;2024-01-30T03:10:01;9.68;;;6.30;;
2213;SDS011;1113;42.018;23.986;2024-01-30T03:12:30;10.75;;;6.95;;
2213;SDS011;1113;42.018;23.986;2024-01-30T03:14:58;8.80;;;5.93;;
2213;SDS011;1113;42.018;23.986;2024-01-30T03:17:25;13.32;;;6.10;;
2213;SDS011;1113;42.018;23.986;2024-01-30T03:19:52;5.97;;;4.20;;
2213;SDS011;1113;42.018;23.986;2024-01-30T03:22:19;8.70;;;4.47;;
2213;SDS011;1113;42.018;23.986;2024-01-30T03:24:46;8.80;;;5.25;;
2213;SDS011;1113;42.018;23.986;2024-01-30T03:27:13;10.90;;;6.35;;
2213;SDS011;1113;42.018;23.986;2024-01-30T03:29:40;13.52;;;7.57;;
2213;SDS011;1113;42.018;23.986;2024-01-30T03:32:09;9.13;;;6.15;;
2213;SDS011;1113;42.018;23.986;2024-01-30T03:34:36;10.27;;;6.05;;
2213;SDS011;1113;42.018;23.986;2024-01-30T03:37:03;8.60;;;5.57;;
2213;SDS011;1113;42.018;23.986;2024-01-30T03:39:30;10.35;;;6.32;;
2213;SDS011;1113;42.018;23.986;2024-01-30T03:41:57;9.40;;;5.25;;
2213;SDS011;1113;42.018;23.986;2024-01-30T03:44:24;10.13;;;6.18;;
2213;SDS011;1113;42.018;23.986;2024-01-30T03:46:51;12.00;;;6.68;;
2213;SDS011;1113;42.018;23.986;2024-01-30T03:49:19;11.27;;;7.20;;
2213;SDS011;1113;42.018;23.986;2024-01-30T03:51:46;11.10;;;6.40;;
2213;SDS011;1113;42.018;23.986;2024-01-30T03:54:13;8.38;;;5.93;;
2213;SDS011;1113;42.018;23.986;2024-01-30T03:56:41;10.90;;;6.57;;
2213;SDS011;1113;42.018;23.986;2024-01-30T03:59:08;8.50;;;5.43;;
2213;SDS011;1113;42.018;23.986;2024-01-30T04:01:35;8.82;;;5.10;;
2213;SDS011;1113;42.018;23.986;2024-01-30T04:04:03;7.60;;;5.20;;
2213;SDS011;1113;42.018;23.986;2024-01-30T04:06:32;8.98;;;6.47;;
2213;SDS011;1113;42.018;23.986;2024-01-30T04:08:59;9.15;;;6.82;;
2213;SDS011;1113;42.018;23.986;2024-01-30T04:11:27;10.45;;;6.63;;
2213;SDS011;1113;42.018;23.986;2024-01-30T04:13:54;7.18;;;5.03;;
2213;SDS011;1113;42.018;23.986;2024-01-30T04:16:22;7.90;;;4.68;;
2213;SDS011;1113;42.018;23.986;2024-01-30T04:18:49;7.90;;;4.85;;
2213;SDS011;1113;42.018;23.986;2024-01-30T04:21:16;18.17;;;11.60;;
2213;SDS011;1113;42.018;23.986;2024-01-30T04:23:45;106.90;;;58.63;;
2213;SDS011;1113;42.018;23.986;2024-01-30T04:26:12;53.50;;;42.25;;
2213;SDS011;1113;42.018;23.986;2024-01-30T04:28:41;40.55;;;33.47;;
2213;SDS011;1113;42.018;23.986;2024-01-30T04:31:08;27.63;;;23.65;;
2213;SDS011;1113;42.018;23.986;2024-01-30T04:33:35;17.80;;;13.35;;
2213;SDS011;1113;42.018;23.986;2024-01-30T04:36:03;10.43;;;7.15;;
2213;SDS011;1113;42.018;23.986;2024-01-30T04:38:31;12.70;;;6.53;;
2213;SDS011;1113;42.018;23.986;2024-01-30T04:40:59;14.00;;;7.30;;
2213;SDS011;1113;42.018;23.986;2024-01-30T04:43:27;16.10;;;8.57;;
2213;SDS011;1113;42.018;23.986;2024-01-30T04:45:54;17.45;;;9.07;;
2213;SDS011;1113;42.018;23.986;2024-01-30T04:48:21;26.35;;;15.13;;
2213;SDS011;1113;42.018;23.986;2024-01-30T04:50:49;52.60;;;25.30;;
2213;SDS011;1113;42.018;23.986;2024-01-30T04:53:16;43.97;;;20.77;;
2213;SDS011;1113;42.018;23.986;2024-01-30T04:55:44;48.78;;;18.65;;
2213;SDS011;1113;42.018;23.986;2024-01-30T04:58:12;46.63;;;17.90;;
2213;SDS011;1113;42.018;23.986;2024-01-30T05:00:40;47.47;;;20.60;;
2213;SDS011;1113;42.018;23.986;2024-01-30T05:03:07;39.78;;;20.40;;
2213;SDS011;1113;42.018;23.986;2024-01-30T05:05:34;52.85;;;26.40;;
2213;SDS011;1113;42.018;23.986;2024-01-30T05:08:02;62.22;;;29.92;;
2213;SDS011;1113;42.018;23.986;2024-01-30T05:10:29;113.50;;;50.08;;
2213;SDS011;1113;42.018;23.986;2024-01-30T05:12:57;87.45;;;47.83;;
2213;SDS011;1113;42.018;23.986;2024-01-30T05:15:26;45.97;;;26.05;;
2213;SDS011;1113;42.018;23.986;2024-01-30T05:17:53;25.10;;;15.40;;
2213;SDS011;1113;42.018;23.986;2024-01-30T05:20:20;18.10;;;10.98;;
2213;SDS011;1113;42.018;23.986;2024-01-30T05:22:47;18.13;;;13.25;;
2213;SDS011;1113;42.018;23.986;2024-01-30T05:25:14;19.38;;;12.98;;
2213;SDS011;1113;42.018;23.986;2024-01-30T05:27:42;25.08;;;17.60;;
2213;SDS011;1113;42.018;23.986;2024-01-30T05:30:09;23.08;;;13.80;;
2213;SDS011;1113;42.018;23.986;2024-01-30T05:32:39;18.92;;;12.05;;
2213;SDS011;1113;42.018;23.986;2024-01-30T05:35:07;17.60;;;12.20;;
2213;SDS011;1113;42.018;23.986;2024-01-30T05:37:34;26.83;;;18.42;;
2213;SDS011;1113;42.018;23.986;2024-01-30T05:40:02;36.15;;;22.95;;
2213;SDS011;1113;42.018;23.986;2024-01-30T05:42:30;35.53;;;22.10;;
2213;SDS011;1113;42.018;23.986;2024-01-30T05:44:57;38.85;;;21.23;;
2213;SDS011;1113;42.018;23.986;2024-01-30T05:47:24;47.67;;;22.75;;
2213;SDS011;1113;42.018;23.986;2024-01-30T05:49:53;38.78;;;25.50;;
2213;SDS011;1113;42.018;23.986;2024-01-30T05:52:20;34.15;;;22.25;;
2213;SDS011;1113;42.018;23.986;2024-01-30T05:54:47;29.20;;;19.40;;
2213;SDS011;1113;42.018;23.986;2024-01-30T05:57:15;22.63;;;14.05;;
2213;SDS011;1113;42.018;23.986;2024-01-30T05:59:42;20.48;;;12.32;;
2213;SDS011;1113;42.018;23.986;2024-01-30T06:02:10;30.48;;;19.05;;
2213;SDS011;1113;42.018;23.986;2024-01-30T06:04:37;30.75;;;20.55;;
2213;SDS011;1113;42.018;23.986;2024-01-30T06:07:06;32.08;;;20.45;;
2213;SDS011;1113;42.018;23.986;2024-01-30T06:09:34;40.40;;;25.85;;
2213;SDS011;1113;42.018;23.986;2024-01-30T06:12:01;37.13;;;24.55;;
2213;SDS011;1113;42.018;23.986;2024-01-30T06:14:30;43.80;;;24.20;;
2213;SDS011;1113;42.018;23.986;2024-01-30T06:16:58;39.97;;;26.45;;
2213;SDS011;1113;42.018;23.986;2024-01-30T06:19:25;40.17;;;23.55;;
2213;SDS011;1113;42.018;23.986;2024-01-30T06:21:52;27.55;;;18.67;;
2213;SDS011;1113;42.018;23.986;2024-01-30T06:24:21;23.45;;;15.40;;
2213;SDS011;1113;42.018;23.986;2024-01-30T06:26:48;27.73;;;14.07;;
2213;SDS011;1113;42.018;23.986;2024-01-30T06:29:16;29.77;;;19.30;;
2213;SDS011;1113;42.018;23.986;2024-01-30T06:31:43;37.17;;;22.58;;
2213;SDS011;1113;42.018;23.986;2024-01-30T06:34:10;26.90;;;16.65;;
2213;SDS011;1113;42.018;23.986;2024-01-30T06:36:38;35.55;;;20.08;;
2213;SDS011;1113;42.018;23.986;2024-01-30T06:39:06;33.25;;;18.90;;
2213;SDS011;1113;42.018;23.986;2024-01-30T06:41:35;23.73;;;13.90;;
2213;SDS011;1113;42.018;23.986;2024-01-30T06:44:02;27.13;;;13.65;;
2213;SDS011;1113;42.018;23.986;2024-01-30T06:46:31;21.90;;;12.70;;
2213;SDS011;1113;42.018;23.986;2024-01-30T06:48:59;19.63;;;12.75;;
2213;SDS011;1113;42.018;23.986;2024-01-30T06:51:26;21.15;;;12.30;;
2213;SDS011;1113;42.018;23.986;2024-01-30T06:53:54;31.25;;;19.20;;
2213;SDS011;1113;42.018;23.986;2024-01-30T06:56:21;31.83;;;18.00;;
2213;SDS011;1113;42.018;23.986;2024-01-30T06:58:50;37.42;;;22.35;;
2213;SDS011;1113;42.018;23.986;2024-01-30T07:01:18;22.75;;;14.68;;
2213;SDS011;1113;42.018;23.986;2024-01-30T07:03:46;25.40;;;17.60;;
2213;SDS011;1113;42.018;23.986;2024-01-30T07:06:13;25.70;;;18.58;;
2213;SDS011;1113;42.018;23.986;2024-01-30T07:08:40;21.85;;;17.63;;
2213;SDS011;1113;42.018;23.986;2024-01-30T07:11:07;23.02;;;14.07;;
2213;SDS011;1113;42.018;23.986;2024-01-30T07:13:35;19.90;;;12.85;;
2213;SDS011;1113;42.018;23.986;2024-01-30T07:16:04;19.80;;;12.20;;
2213;SDS011;1113;42.018;23.986;2024-01-30T07:18:32;24.17;;;13.43;;
2213;SDS011;1113;42.018;23.986;2024-01-30T07:20:59;18.90;;;10.80;;
2213;SDS011;1113;42.018;23.986;2024-01-30T07:23:26;17.33;;;10.38;;
2213;SDS011;1113;42.018;23.986;2024-01-30T07:25:54;23.00;;;13.95;;
2213;SDS011;1113;42.018;23.986;2024-01-30T07:28:22;20.17;;;11.98;;
2213;SDS011;1113;42.018;23.986;2024-01-30T07:30:49;46.67;;;21.63;;
2213;SDS011;1113;42.018;23.986;2024-01-30T07:33:17;53.00;;;27.50;;
2213;SDS011;1113;42.018;23.986;2024-01-30T07:35:45;51.83;;;24.52;;
2213;SDS011;1113;42.018;23.986;2024-01-30T07:38:12;30.27;;;18.40;;
2213;SDS011;1113;42.018;23.986;2024-01-30T07:40:39;23.70;;;14.30;;
2213;SDS011;1113;42.018;23.986;2024-01-30T07:43:07;18.88;;;11.88;;
2213;SDS011;1113;42.018;23.986;2024-01-30T07:45:34;13.60;;;8.95;;
2213;SDS011;1113;42.018;23.986;2024-01-30T07:48:03;17.75;;;10.32;;
2213;SDS011;1113;42.018;23.986;2024-01-30T07:50:32;30.50;;;16.00;;
2213;SDS011;1113;42.018;23.986;2024-01-30T07:53:00;41.35;;;22.02;;
2213;SDS011;1113;42.018;23.986;2024-01-30T07:55:28;24.48;;;18.10;;
2213;SDS011;1113;42.018;23.986;2024-01-30T07:57:57;23.80;;;17.02;;
2213;SDS011;1113;42.018;23.986;2024-01-30T08:00:24;33.85;;;17.98;;
2213;SDS011;1113;42.018;23.986;2024-01-30T08:02:51;38.28;;;19.40;;
2213;SDS011;1113;42.018;23.986;2024-01-30T08:05:20;26.15;;;15.20;;
2213;SDS011;1113;42.018;23.986;2024-01-30T08:07:50;19.35;;;12.18;;
2213;SDS011;1113;42.018;23.986;2024-01-30T08:10:17;18.15;;;12.05;;
2213;SDS011;1113;42.018;23.986;2024-01-30T08:12:45;26.67;;;15.70;;
2213;SDS011;1113;42.018;23.986;2024-01-30T08:15:12;31.85;;;16.98;;
2213;SDS011;1113;42.018;23.986;2024-01-30T08:17:40;22.23;;;13.10;;
2213;SDS011;1113;42.018;23.986;2024-01-30T08:20:07;12.85;;;8.10;;
2213;SDS011;1113;42.018;23.986;2024-01-30T08:22:37;14.68;;;8.02;;
2213;SDS011;1113;42.018;23.986;2024-01-30T08:25:07;14.45;;;9.18;;
2213;SDS011;1113;42.018;23.986;2024-01-30T08:27:36;10.77;;;6.28;;
2213;SDS011;1113;42.018;23.986;2024-01-30T08:30:05;6.55;;;4.85;;
2213;SDS011;1113;42.018;23.986;2024-01-30T08:32:33;8.63;;;4.57;;
2213;SDS011;1113;42.018;23.986;2024-01-30T08:35:01;6.10;;;3.90;;
2213;SDS011;1113;42.018;23.986;2024-01-30T08:37:29;7.82;;;4.53;;
2213;SDS011;1113;42.018;23.986;2024-01-30T08:39:56;13.80;;;8.10;;
2213;SDS011;1113;42.018;23.986;2024-01-30T08:42:25;16.77;;;10.45;;
2213;SDS011;1113;42.018;23.986;2024-01-30T08:44:52;21.83;;;14.45;;
2213;SDS011;1113;42.018;23.986;2024-01-30T08:47:19;14.63;;;10.05;;
2213;SDS011;1113;42.018;23.986;2024-01-30T08:49:46;26.75;;;19.00;;
2213;SDS011;1113;42.018;23.986;2024-01-30T08:52:13;22.65;;;12.18;;
2213;SDS011;1113;42.018;23.986;2024-01-30T08:54:40;9.30;;;5.90;;
2213;SDS011;1113;42.018;23.986;2024-01-30T08:57:08;14.70;;;9.10;;
2213;SDS011;1113;42.018;23.986;2024-01-30T08:59:37;30.63;;;14.77;;
2213;SDS011;1113;42.018;23.986;2024-01-30T09:02:04;20.90;;;9.02;;
2213;SDS011;1113;42.018;23.986;2024-01-30T09:04:31;13.70;;;7.60;;
2213;SDS011;1113;42.018;23.986;2024-01-30T09:06:59;4.35;;;3.65;;
2213;SDS011;1113;42.018;23.986;2024-01-30T09:09:26;15.35;;;9.07;;
2213;SDS011;1113;42.018;23.986;2024-01-30T09:11:53;7.32;;;5.18;;
2213;SDS011;1113;42.018;23.986;2024-01-30T09:14:20;11.52;;;6.03;;
2213;SDS011;1113;42.018;23.986;2024-01-30T09:16:49;10.32;;;6.90;;
2213;SDS011;1113;42.018;23.986;2024-01-30T09:19:16;15.30;;;11.05;;
2213;SDS011;1113;42.018;23.986;2024-01-30T09:21:44;13.40;;;7.50;;
2213;SDS011;1113;42.018;23.986;2024-01-30T09:24:11;12.25;;;7.75;;
2213;SDS011;1113;42.018;23.986;2024-01-30T09:26:38;8.18;;;5.20;;
2213;SDS011;1113;42.018;23.986;2024-01-30T09:29:05;7.28;;;4.22;;
2213;SDS011;1113;42.018;23.986;2024-01-30T09:31:33;4.97;;;4.00;;
2213;SDS011;1113;42.018;23.986;2024-01-30T09:34:02;8.10;;;4.82;;
2213;SDS011;1113;42.018;23.986;2024-01-30T09:36:29;11.52;;;8.27;;
2213;SDS011;1113;42.018;23.986;2024-01-30T09:38:56;13.10;;;9.68;;
2213;SDS011;1113;42.018;23.986;2024-01-30T09:41:24;11.45;;;6.63;;
2213;SDS011;1113;42.018;23.986;2024-01-30T09:43:52;9.38;;;5.20;;
2213;SDS011;1113;42.018;23.986;2024-01-30T09:46:24;11.77;;;6.38;;
2213;SDS011;1113;42.018;23.986;2024-01-30T09:48:56;4.40;;;3.33;;
2213;SDS011;1113;42.018;23.986;2024-01-30T09:51:26;5.65;;;3.35;;
2213;SDS011;1113;42.018;23.986;2024-01-30T09:53:55;8.57;;;6.07;;
2213;SDS011;1113;42.018;23.986;2024-01-30T09:56:23;10.63;;;7.00;;
2213;SDS011;1113;42.018;23.986;2024-01-30T09:58:51;10.18;;;7.60;;
2213;SDS011;1113;42.018;23.986;2024-01-30T10:01:18;8.68;;;4.78;;
2213;SDS011;1113;42.018;23.986;2024-01-30T10:03:46;6.47;;;4.40;;
2213;SDS011;1113;42.018;23.986;2024-01-30T10:06:13;9.73;;;6.20;;
2213;SDS011;1113;42.018;23.986;2024-01-30T10:08:44;7.85;;;5.63;;
2213;SDS011;1113;42.018;23.986;2024-01-30T10:11:11;8.80;;;5.60;;
2213;SDS011;1113;42.018;23.986;2024-01-30T10:13:38;11.02;;;6.97;;
2213;SDS011;1113;42.018;23.986;2024-01-30T10:16:06;11.93;;;8.40;;
2213;SDS011;1113;42.018;23.986;2024-01-30T10:18:34;6.15;;;4.28;;
2213;SDS011;1113;42.018;23.986;2024-01-30T10:21:01;8.48;;;5.80;;
2213;SDS011;1113;42.018;23.986;2024-01-30T10:23:29;8.23;;;4.18;;
2213;SDS011;1113;42.018;23.986;2024-01-30T10:25:58;5.38;;;3.88;;
2213;SDS011;1113;42.018;23.986;2024-01-30T10:28:26;22.92;;;15.15;;
2213;SDS011;1113;42.018;23.986;2024-01-30T10:30:58;15.57;;;9.90;;
2213;SDS011;1113;42.018;23.986;2024-01-30T10:33:26;17.10;;;10.50;;
2213;SDS011;1113;42.018;23.986;2024-01-30T10:35:54;6.70;;;4.03;;
2213;SDS011;1113;42.018;23.986;2024-01-30T10:38:27;10.85;;;5.35;;
2213;SDS011;1113;42.018;23.986;2024-01-30T10:40:58;4.80;;;3.00;;
2213;SDS011;1113;42.018;23.986;2024-01-30T10:43:28;13.30;;;7.60;;
2213;SDS011;1113;42.018;23.986;2024-01-30T10:46:01;19.10;;;7.15;;
2213;SDS011;1113;42.018;23.986;2024-01-30T10:48:36;9.60;;;6.35;;
2213;SDS011;1113;42.018;23.986;2024-01-30T10:51:09;10.02;;;5.53;;
2213;SDS011;1113;42.018;23.986;2024-01-30T10:53:39;10.82;;;5.90;;
2213;SDS011;1113;42.018;23.986;2024-01-30T10:56:09;5.57;;;3.55;;
2213;SDS011;1113;42.018;23.986;2024-01-30T10:58:38;9.75;;;6.10;;
2213;SDS011;1113;42.018;23.986;2024-01-30T11:01:06;10.80;;;5.88;;
2213;SDS011;1113;42.018;23.986;2024-01-30T11:03:34;9.02;;;5.28;;
2213;SDS011;1113;42.018;23.986;2024-01-30T11:06:02;4.50;;;2.80;;
2213;SDS011;1113;42.018;23.986;2024-01-30T11:08:32;4.18;;;3.05;;
2213;SDS011;1113;42.018;23.986;2024-01-30T11:10:59;7.60;;;4.80;;
2213;SDS011;1113;42.018;23.986;2024-01-30T11:13:29;9.23;;;3.80;;
2213;SDS011;1113;42.018;23.986;2024-01-30T11:16:00;6.80;;;4.18;;
2213;SDS011;1113;42.018;23.986;2024-01-30T11:18:28;5.95;;;4.38;;
2213;SDS011;1113;42.018;23.986;2024-01-30T11:20:57;5.55;;;4.95;;
2213;SDS011;1113;42.018;23.986;2024-01-30T11:23:27;6.18;;;3.50;;
2213;SDS011;1113;42.018;23.986;2024-01-30T11:25:55;5.03;;;3.35;;
2213;SDS011;1113;42.018;23.986;2024-01-30T11:28:23;8.60;;;4.80;;
2213;SDS011;1113;42.018;23.986;2024-01-30T11:31:02;10.85;;;5.45;;
2213;SDS011;1113;42.018;23.986;2024-01-30T11:33:30;11.73;;;6.63;;
2213;SDS011;1113;42.018;23.986;2024-01-30T11:35:58;6.18;;;3.80;;
2213;SDS011;1113;42.018;23.986;2024-01-30T11:38:26;9.13;;;5.15;;
2213;SDS011;1113;42.018;23.986;2024-01-30T11:40:54;11.30;;;5.90;;
2213;SDS011;1113;42.018;23.986;2024-01-30T11:43:22;8.00;;;5.18;;
2213;SDS011;1113;42.018;23.986;2024-01-30T11:45:50;4.45;;;3.25;;
2213;SDS011;1113;42.018;23.986;2024-01-30T11:48:19;6.70;;;4.78;;
2213;SDS011;1113;42.018;23.986;2024-01-30T11:50:47;7.80;;;5.25;;
2213;SDS011;1113;42.018;23.986;2024-01-30T11:53:17;8.95;;;5.82;;
2213;SDS011;1113;42.018;23.986;2024-01-30T11:55:49;9.40;;;5.70;;
2213;SDS011;1113;42.018;23.986;2024-01-30T11:58:17;14.15;;;9.48;;
2213;SDS011;1113;42.018;23.986;2024-01-30T12:00:54;10.00;;;6.88;;
2213;SDS011;1113;42.018;23.986;2024-01-30T12:03:22;11.05;;;7.05;;
2213;SDS011;1113;42.018;23.986;2024-01-30T12:05:54;10.07;;;6.53;;
2213;SDS011;1113;42.018;23.986;2024-01-30T12:08:23;8.38;;;5.57;;
2213;SDS011;1113;42.018;23.986;2024-01-30T12:10:55;11.05;;;8.30;;
2213;SDS011;1113;42.018;23.986;2024-01-30T12:13:23;14.90;;;8.75;;
2213;SDS011;1113;42.018;23.986;2024-01-30T12:15:50;17.45;;;11.88;;
2213;SDS011;1113;42.018;23.986;2024-01-30T12:18:20;15.73;;;9.10;;
2213;SDS011;1113;42.018;23.986;2024-01-30T12:20:56;17.38;;;9.65;;
2213;SDS011;1113;42.018;23.986;2024-01-30T12:23:24;13.13;;;9.40;;
2213;SDS011;1113;42.018;23.986;2024-01-30T12:25:52;13.73;;;11.20;;
2213;SDS011;1113;42.018;23.986;2024-01-30T12:28:19;13.73;;;9.20;;
2213;SDS011;1113;42.018;23.986;2024-01-30T12:30:47;9.75;;;5.80;;
2213;SDS011;1113;42.018;23.986;2024-01-30T12:33:16;10.52;;;7.03;;
2213;SDS011;1113;42.018;23.986;2024-01-30T12:35:48;16.90;;;7.25;;
2213;SDS011;1113;42.018;23.986;2024-01-30T12:38:16;9.88;;;6.40;;
2213;SDS011;1113;42.018;23.986;2024-01-30T12:40:43;9.27;;;6.55;;
2213;SDS011;1113;42.018;23.986;2024-01-30T12:43:13;12.52;;;7.30;;
2213;SDS011;1113;42.018;23.986;2024-01-30T12:45:41;10.57;;;5.45;;
2213;SDS011;1113;42.018;23.986;2024-01-30T12:48:08;9.45;;;5.82;;
2213;SDS011;1113;42.018;23.986;2024-01-30T12:50:36;8.73;;;6.35;;
2213;SDS011;1113;42.018;23.986;2024-01-30T12:53:05;10.80;;;6.25;;
2213;SDS011;1113;42.018;23.986;2024-01-30T12:55:32;8.10;;;5.07;;
2213;SDS011;1113;42.018;23.986;2024-01-30T12:57:59;12.75;;;7.65;;
2213;SDS011;1113;42.018;23.986;2024-01-30T13:00:27;9.35;;;5.45;;
2213;SDS011;1113;42.018;23.986;2024-01-30T13:02:54;17.90;;;7.90;;
2213;SDS011;1113;42.018;23.986;2024-01-30T13:05:21;11.60;;;6.85;;
2213;SDS011;1113;42.018;23.986;2024-01-30T13:07:49;13.90;;;7.75;;
2213;SDS011;1113;42.018;23.986;2024-01-30T13:10:20;11.48;;;6.43;;
2213;SDS011;1113;42.018;23.986;2024-01-30T13:12:47;5.40;;;3.70;;
2213;SDS011;1113;42.018;23.986;2024-01-30T13:15:14;8.57;;;5.65;;
2213;SDS011;1113;42.018;23.986;2024-01-30T13:17:42;10.70;;;5.65;;
2213;SDS011;1113;42.018;23.986;2024-01-30T13:20:11;9.15;;;5.20;;
2213;SDS011;1113;42.018;23.986;2024-01-30T13:22:39;5.97;;;4.28;;
2213;SDS011;1113;42.018;23.986;2024-01-30T13:25:07;10.25;;;6.15;;
2213;SDS011;1113;42.018;23.986;2024-01-30T13:27:36;10.18;;;6.75;;
2213;SDS011;1113;42.018;23.986;2024-01-30T13:30:04;7.95;;;5.45;;
2213;SDS011;1113;42.018;23.986;2024-01-30T13:32:33;17.70;;;10.07;;
2213;SDS011;1113;42.018;23.986;2024-01-30T13:35:00;12.88;;;7.32;;
2213;SDS011;1113;42.018;23.986;2024-01-30T13:37:28;11.05;;;6.05;;
2213;SDS011;1113;42.018;23.986;2024-01-30T13:39:56;7.30;;;4.63;;
2213;SDS011;1113;42.018;23.986;2024-01-30T13:42:23;13.63;;;6.13;;
2213;SDS011;1113;42.018;23.986;2024-01-30T13:44:52;8.38;;;5.15;;
2213;SDS011;1113;42.018;23.986;2024-01-30T13:47:19;8.88;;;5.18;;
2213;SDS011;1113;42.018;23.986;2024-01-30T13:49:47;8.93;;;5.28;;
2213;SDS011;1113;42.018;23.986;2024-01-30T13:52:14;10.77;;;6.30;;
2213;SDS011;1113;42.018;23.986;2024-01-30T13:54:42;7.82;;;5.03;;
2213;SDS011;1113;42.018;23.986;2024-01-30T13:57:09;13.48;;;7.03;;
2213;SDS011;1113;42.018;23.986;2024-01-30T13:59:37;18.73;;;9.38;;
2213;SDS011;1113;42.018;23.986;2024-01-30T14:02:06;13.95;;;9.05;;
2213;SDS011;1113;42.018;23.986;2024-01-30T14:04:35;16.13;;;9.43;;
2213;SDS011;1113;42.018;23.986;2024-01-30T14:07:02;18.80;;;7.95;;
2213;SDS011;1113;42.018;23.986;2024-01-30T14:09:31;19.48;;;11.00;;
2213;SDS011;1113;42.018;23.986;2024-01-30T14:11:59;18.95;;;11.80;;
2213;SDS011;1113;42.018;23.986;2024-01-30T14:14:26;17.55;;;10.05;;
2213;SDS011;1113;42.018;23.986;2024-01-30T14:16:53;12.85;;;8.73;;
2213;SDS011;1113;42.018;23.986;2024-01-30T14:19:22;11.23;;;6.60;;
2213;SDS011;1113;42.018;23.986;2024-01-30T14:21:50;18.83;;;12.13;;
2213;SDS011;1113;42.018;23.986;2024-01-30T14:24:17;20.20;;;13.73;;
2213;SDS011;1113;42.018;23.986;2024-01-30T14:26:44;39.60;;;23.77;;
2213;SDS011;1113;42.018;23.986;2024-01-30T14:29:12;37.63;;;20.65;;
2213;SDS011;1113;42.018;23.986;2024-01-30T14:31:39;62.28;;;32.38;;
2213;SDS011;1113;42.018;23.986;2024-01-30T14:34:06;41.17;;;20.90;;
2213;SDS011;1113;42.018;23.986;2024-01-30T14:36:37;28.15;;;15.35;;
2213;SDS011;1113;42.018;23.986;2024-01-30T14:39:05;30.85;;;19.63;;
2213;SDS011;1113;42.018;23.986;2024-01-30T14:41:33;30.05;;;17.50;;
2213;SDS011;1113;42.018;23.986;2024-01-30T14:44:00;12.00;;;8.18;;
2213;SDS011;1113;42.018;23.986;2024-01-30T14:46:27;12.50;;;7.95;;
2213;SDS011;1113;42.018;23.986;2024-01-30T14:48:54;14.07;;;8.65;;